首页
METAR-TAF:

METAR-TAF

机场 :

Garden City, 堪薩斯州, 美国

纬度: 37-55-39N, 经度: 100-43-28W, 海拔: 881米

当前天气观测

该预报发布于57分钟前的05:54 UTC
风速6节,风向
温度 22°C
湿度 73%
气压 1013 hPa
能見度: 16.1公里
天空无云

METAR: KGCK 130554Z AUTO 18006KT 10SM CLR 22/17 A2990 RMK AO2 SLP086 T02170172 10339 20217 403560167 51009

时间: 01:51 (06:51 UTC)

预报

该预报发布于1小时和31分钟前的05:20 UTC
预报有效从13日的 06点(UTC)到 14日的 06点(UTC)
风速6节,风向南转南东
能見度: 10公里
天空无云
从 13日的 2200点(UTC)
风速9节,风向北转东北
能見度: 10公里
散云层高于25000英尺, 积雨云.
附近有雷暴,

TAF: KGCK 130520Z 1306/1406 15006KT P6SM SKC FM132200 02009KT P6SM VCTS SCT250CB

超过4000个机场的气象观测和天气预报(METAR&TAF报告)。

可查询的气象台以黄色和红色小点在地图上表示。

将鼠标移到小点上方,可查看气象台名称。

然后点击查看天气观测和预报。

如需切换地图:点击带黑十字的绿色按钮放大地图;点击带横线的绿色按钮缩小地图;或者点击绿色箭头查看邻近地区的地图。


METAR-TAF: